09:52
Airports
Links
Donate
Help keep this website running!
PayPal
Bitcoin
METAR
ENAT 180850Z 14003KT 9999 BKN007 M07/M08 Q1002 RMK WIND 700FT VRB02KT
Current Weather Conditions at ENAT
IFR 08:50:00 18-11-17
Altimeter:29.59 hg
Temp:-7.0°c 19°f
Dew point:-8.0°c 18°f
Wind:3 knots, 3.5 mph, 2 m/s, from 140°
Visibility:6.21 statute miles
700(BKN) Broken
Past METAR reports
VFR 07:50:00 18-11-17
Altimeter:29.56 hg
Temp:-7.0°c 19°f
Dew point:-8.0°c 18°f
Wind:2 knots, 2.3 mph, 1 m/s, from 130°
Visibility:6.21 statute miles
4900(BKN) Broken
1300(FEW) A few
ENAT 180750Z 13002KT 9999 FEW013 BKN049 M07/M08 Q1001 RMK WIND 700FT 18004KT
MVFR 06:50:00 18-11-17
Altimeter:29.56 hg
Temp:-6.0°c 21°f
Dew point:-7.0°c 19°f
Wind:2 knots, 2.3 mph, 1 m/s, from 180°
Visibility:6.21 statute miles
1000(BKN) Broken
ENAT 180650Z 18002KT 9999 BKN010 M06/M07 Q1001 RMK WIND 700FT VRB03KT
MVFR 05:50:00 18-11-17
Altimeter:29.53 hg
Temp:-6.0°c 21°f
Dew point:-7.0°c 19°f
Wind:2 knots, 2.3 mph, 1 m/s, from 160°
Visibility:6.21 statute miles
1200(BKN) Broken
800(SCT) Scattered
ENAT 180550Z 16002KT 9999 SCT008 BKN012 M06/M07 Q1000 RMK WIND 700FT 19004KT
IFR 04:50:00 18-11-17
Automated station, no observer
Altimeter:29.53 hg
Temp:-6.0°c 21°f
Dew point:-7.0°c 19°f
Wind:2 knots, 2.3 mph, 1 m/s,
Variable direction
Visibility:6.21 statute miles
700(OVC) Overcast
ENAT 180450Z AUTO VRB02KT 9999 OVC007/// M06/M07 Q1000 RMK WIND 700FT VRB02KT
TAF
TAF ENAT 180800Z 1809/1815 16005KT 9999 FEW008 SCT020 TEMPO 1809/1815 BKN008
Forecast at ENAT
09:00 18-11-17 to 15:00 18-11-17
Wind:5 Knots from 160°
Visibility:6.21 statute miles
800FEW A few
2000SCT Scattered
TEMPO 09:00 18-11-17 to 15:00 18-11-17
800BKN Broken